createdAt,value
2023-09-12T00:00:24.653Z,19.21
2023-09-12T00:02:51.592Z,19.22
2023-09-12T00:05:18.312Z,19.24
2023-09-12T00:07:44.905Z,19.26
2023-09-12T00:10:11.504Z,19.28
2023-09-12T00:12:38.150Z,19.26
2023-09-12T00:15:05.654Z,19.19
2023-09-12T00:17:32.387Z,19.17
2023-09-12T00:19:58.960Z,19.15
2023-09-12T00:22:25.547Z,19.17
2023-09-12T00:24:52.048Z,19.21
2023-09-12T00:27:18.628Z,19.26
2023-09-12T00:29:45.316Z,19.27
2023-09-12T00:32:13.300Z,19.24
2023-09-12T00:34:39.765Z,19.18
2023-09-12T00:37:06.513Z,19.12
2023-09-12T00:39:33.590Z,19.11
2023-09-12T00:42:00.116Z,19.12
2023-09-12T00:44:26.966Z,19.09
2023-09-12T00:46:55.451Z,19.07
2023-09-12T00:49:23.758Z,19.00
2023-09-12T00:51:51.826Z,19.02
2023-09-12T00:54:18.862Z,19.00
2023-09-12T00:56:46.372Z,18.96
2023-09-12T00:59:14.437Z,18.94
2023-09-12T01:01:41.137Z,18.93
2023-09-12T01:04:14.611Z,18.97
2023-09-12T01:06:48.626Z,18.93
2023-09-12T01:09:15.208Z,18.92
2023-09-12T01:11:42.463Z,18.88
2023-09-12T01:14:09.028Z,18.85
2023-09-12T01:16:35.636Z,18.78
2023-09-12T01:19:02.631Z,18.71
2023-09-12T01:22:08.779Z,18.63
2023-09-12T01:24:43.129Z,18.57
2023-09-12T01:27:22.837Z,18.50
2023-09-12T01:29:54.867Z,18.49
2023-09-12T01:32:22.074Z,18.52
2023-09-12T01:34:49.056Z,18.49
2023-09-12T01:37:16.080Z,18.37
2023-09-12T01:39:43.014Z,18.31
2023-09-12T01:42:17.051Z,18.31
2023-09-12T01:44:47.951Z,18.28
2023-09-12T01:47:15.803Z,18.23
2023-09-12T01:49:46.572Z,18.24
2023-09-12T01:52:14.172Z,18.20
2023-09-12T01:54:42.492Z,18.11
2023-09-12T01:57:10.787Z,18.21
2023-09-12T01:59:38.075Z,18.21
2023-09-12T02:02:04.777Z,18.22
2023-09-12T02:04:31.532Z,18.22
2023-09-12T02:06:59.260Z,18.24
2023-09-12T02:09:26.399Z,18.22
2023-09-12T02:11:52.998Z,18.22
2023-09-12T02:14:19.474Z,18.18
2023-09-12T02:16:46.618Z,18.18
2023-09-12T02:19:13.207Z,18.19
2023-09-12T02:21:39.921Z,18.21
2023-09-12T02:24:06.918Z,18.24
2023-09-12T02:26:37.145Z,18.25
2023-09-12T02:29:06.895Z,18.26
2023-09-12T02:31:33.593Z,18.25
2023-09-12T02:34:00.338Z,18.24
2023-09-12T02:36:27.002Z,18.21
2023-09-12T02:38:53.562Z,18.22
2023-09-12T02:41:20.206Z,18.20
2023-09-12T02:43:46.754Z,18.20
2023-09-12T02:46:13.481Z,18.21
2023-09-12T02:48:40.136Z,18.22
2023-09-12T02:51:07.743Z,18.24
2023-09-12T02:53:34.257Z,18.23
2023-09-12T02:56:01.216Z,18.19
2023-09-12T02:58:27.794Z,18.17
2023-09-12T03:00:55.710Z,18.13
2023-09-12T03:03:22.847Z,18.08
2023-09-12T03:05:58.542Z,18.01
2023-09-12T03:08:25.274Z,17.96
2023-09-12T03:10:58.459Z,17.96
2023-09-12T03:13:26.573Z,17.99
2023-09-12T03:15:53.937Z,18.01
2023-09-12T03:18:21.112Z,18.03
2023-09-12T03:20:47.805Z,18.01
2023-09-12T03:23:14.335Z,18.00
2023-09-12T03:25:40.894Z,18.01
2023-09-12T03:28:08.456Z,18.03
2023-09-12T03:30:36.666Z,18.07
2023-09-12T03:33:04.479Z,18.08
2023-09-12T03:35:32.773Z,18.14
2023-09-12T03:37:59.611Z,18.19
2023-09-12T03:40:26.309Z,18.23
2023-09-12T03:42:53.737Z,18.26
2023-09-12T03:45:20.279Z,18.30
2023-09-12T03:47:48.078Z,18.32
2023-09-12T03:50:16.134Z,18.32
2023-09-12T03:52:42.826Z,18.35
2023-09-12T03:55:09.818Z,18.35
2023-09-12T03:57:36.427Z,18.33
2023-09-12T04:00:06.912Z,18.24
2023-09-12T04:02:40.480Z,18.18
2023-09-12T04:05:07.863Z,18.14
2023-09-12T04:07:34.398Z,18.10
2023-09-12T04:10:00.893Z,18.08
2023-09-12T04:12:27.390Z,18.00
2023-09-12T04:14:54.095Z,17.94
2023-09-12T04:17:20.763Z,17.89
2023-09-12T04:19:47.280Z,17.87
2023-09-12T04:22:14.494Z,17.81
2023-09-12T04:24:41.160Z,17.79
2023-09-12T04:27:07.699Z,17.80
2023-09-12T04:29:37.602Z,17.80
2023-09-12T04:32:05.661Z,17.78
2023-09-12T04:34:33.864Z,17.75
2023-09-12T04:37:00.418Z,17.74
2023-09-12T04:39:27.205Z,17.75
2023-09-12T04:41:53.739Z,17.75
2023-09-12T04:44:20.258Z,17.73
2023-09-12T04:46:47.434Z,17.70
2023-09-12T04:49:14.060Z,17.67
2023-09-12T04:51:41.361Z,17.61
2023-09-12T04:54:07.981Z,17.69
2023-09-12T04:56:34.528Z,17.77
2023-09-12T04:59:01.224Z,17.83
2023-09-12T05:01:27.776Z,17.93
2023-09-12T05:03:54.476Z,18.02
2023-09-12T05:06:21.174Z,18.11
2023-09-12T05:08:47.766Z,18.22
2023-09-12T05:11:14.614Z,18.31
2023-09-12T05:13:42.189Z,18.43
2023-09-12T05:16:08.929Z,18.51
2023-09-12T05:18:35.567Z,18.51
2023-09-12T05:21:02.103Z,18.49
2023-09-12T05:23:28.630Z,18.56
2023-09-12T05:25:55.155Z,18.65
2023-09-12T05:28:21.736Z,18.78
2023-09-12T05:30:50.554Z,18.90
2023-09-12T05:33:17.677Z,18.97
2023-09-12T05:35:45.492Z,19.12
2023-09-12T05:38:12.368Z,19.20
2023-09-12T05:40:38.958Z,19.32
2023-09-12T05:43:05.467Z,19.41
2023-09-12T05:45:33.848Z,19.50
2023-09-12T05:48:01.192Z,19.57
2023-09-12T05:50:28.874Z,19.70
2023-09-12T05:52:55.442Z,19.78
2023-09-12T05:55:22.499Z,19.85
2023-09-12T05:57:53.632Z,19.91
2023-09-12T06:00:22.150Z,19.98
2023-09-12T06:02:49.186Z,20.01
2023-09-12T06:05:17.170Z,20.11
2023-09-12T06:07:44.262Z,20.20
2023-09-12T06:10:10.875Z,20.28
2023-09-12T06:12:37.590Z,20.38
2023-09-12T06:15:05.512Z,20.45
2023-09-12T06:17:32.734Z,20.50
2023-09-12T06:19:59.515Z,20.56
2023-09-12T06:22:26.199Z,20.65
2023-09-12T06:24:52.924Z,20.75
2023-09-12T06:27:22.651Z,20.80
2023-09-12T06:29:49.827Z,20.87
2023-09-12T06:32:17.244Z,20.95
2023-09-12T06:34:43.755Z,21.06
2023-09-12T06:37:12.451Z,21.12
2023-09-12T06:39:39.191Z,21.21
2023-09-12T06:42:06.289Z,21.33
2023-09-12T06:44:32.783Z,21.40
2023-09-12T06:46:59.242Z,21.47
2023-09-12T06:49:25.719Z,21.56
2023-09-12T06:51:52.251Z,21.66
2023-09-12T06:54:19.052Z,21.81
2023-09-12T06:56:45.566Z,21.95
2023-09-12T06:59:12.464Z,22.07
2023-09-12T07:01:39.199Z,22.20
2023-09-12T07:04:06.013Z,22.29
2023-09-12T07:06:34.014Z,22.43
2023-09-12T07:09:00.966Z,22.57
2023-09-12T07:11:27.492Z,22.73
2023-09-12T07:13:53.985Z,22.87
2023-09-12T07:16:21.600Z,23.02
2023-09-12T07:18:51.653Z,23.22
2023-09-12T07:21:18.637Z,23.43
2023-09-12T07:23:45.613Z,23.62
2023-09-12T07:26:15.893Z,23.75
2023-09-12T07:28:42.488Z,23.90
2023-09-12T07:31:09.111Z,23.93
2023-09-12T07:33:35.759Z,23.92
2023-09-12T07:36:03.985Z,23.97
2023-09-12T07:38:33.495Z,24.09
2023-09-12T07:41:01.741Z,24.19
2023-09-12T07:43:28.273Z,24.25
2023-09-12T07:45:59.135Z,24.23
2023-09-12T07:48:26.224Z,24.21
2023-09-12T07:50:52.923Z,24.20
2023-09-12T07:53:19.768Z,24.16
2023-09-12T07:55:47.492Z,24.15
2023-09-12T07:58:15.902Z,24.14
2023-09-12T08:00:42.709Z,24.27
2023-09-12T08:03:09.510Z,24.29
2023-09-12T08:05:36.284Z,24.33
2023-09-12T08:08:03.310Z,24.30
2023-09-12T08:10:30.313Z,24.30
2023-09-12T08:12:56.909Z,24.34
2023-09-12T08:15:23.412Z,24.46
2023-09-12T08:17:53.049Z,24.59
2023-09-12T08:20:20.952Z,24.73
2023-09-12T08:22:47.902Z,24.84
2023-09-12T08:25:15.699Z,24.87
2023-09-12T08:27:44.339Z,24.97
2023-09-12T08:30:14.875Z,25.09
2023-09-12T08:32:45.480Z,25.17
2023-09-12T08:35:15.262Z,25.25
2023-09-12T08:37:42.659Z,25.32
2023-09-12T08:40:11.444Z,25.43
2023-09-12T08:42:43.936Z,25.55
2023-09-12T08:45:18.395Z,25.70
2023-09-12T08:47:46.791Z,25.77
2023-09-12T08:50:15.722Z,25.87
2023-09-12T08:52:59.661Z,25.95
2023-09-12T08:55:33.081Z,26.03
2023-09-12T08:58:00.941Z,26.16
2023-09-12T09:00:28.477Z,26.27
2023-09-12T09:02:55.652Z,26.39
2023-09-12T09:05:24.289Z,26.52
2023-09-12T09:07:52.422Z,26.60
2023-09-12T09:10:24.105Z,26.69
2023-09-12T09:12:55.566Z,26.73
2023-09-12T09:15:25.043Z,26.81
2023-09-12T09:17:53.233Z,26.89
2023-09-12T09:20:30.730Z,27.07
2023-09-12T09:23:00.865Z,27.19
2023-09-12T09:25:28.154Z,27.28
2023-09-12T09:27:54.886Z,27.34
2023-09-12T09:30:40.755Z,27.44
2023-09-12T09:33:07.781Z,27.52
2023-09-12T09:35:34.859Z,27.58
2023-09-12T09:38:01.674Z,27.67
2023-09-12T09:40:28.202Z,27.71
2023-09-12T09:43:00.395Z,27.80
2023-09-12T09:45:28.517Z,27.84
2023-09-12T09:47:59.459Z,27.91
2023-09-12T09:50:26.846Z,28.08
2023-09-12T09:52:57.368Z,28.29
2023-09-12T09:55:24.619Z,28.43
2023-09-12T09:57:53.208Z,28.49
2023-09-12T10:00:29.721Z,28.53
2023-09-12T10:02:57.015Z,28.57
2023-09-12T10:05:23.864Z,28.64
2023-09-12T10:07:51.856Z,28.77
2023-09-12T10:10:20.372Z,28.89
2023-09-12T10:12:52.690Z,29.04
2023-09-12T10:15:20.586Z,29.10
2023-09-12T10:18:29.376Z,29.16
2023-09-12T10:21:04.816Z,29.32
2023-09-12T10:23:46.355Z,29.47
2023-09-12T10:26:14.702Z,29.53
2023-09-12T10:28:43.134Z,29.51
2023-09-12T10:31:12.913Z,29.48
2023-09-12T10:33:40.259Z,29.59
2023-09-12T10:36:09.852Z,29.74
2023-09-12T10:38:44.528Z,29.85
2023-09-12T10:41:15.805Z,29.90
2023-09-12T10:43:44.339Z,29.94
2023-09-12T10:46:11.523Z,30.00
2023-09-12T10:48:38.582Z,29.97
2023-09-12T10:51:06.283Z,30.01
2023-09-12T10:53:34.841Z,30.13
2023-09-12T10:56:20.439Z,30.24
2023-09-12T10:59:05.280Z,30.44
2023-09-12T11:01:33.157Z,30.59
2023-09-12T11:04:19.902Z,30.61
2023-09-12T11:06:50.899Z,30.73
2023-09-12T11:09:25.023Z,30.86
2023-09-12T11:12:09.253Z,31.01
2023-09-12T11:14:35.764Z,31.18
2023-09-12T11:17:08.734Z,31.37
2023-09-12T11:19:46.378Z,31.60
2023-09-12T11:22:29.204Z,31.74
2023-09-12T11:24:57.548Z,31.70
2023-09-12T11:27:45.331Z,31.77
2023-09-12T11:30:12.624Z,32.00
2023-09-12T11:32:39.573Z,32.16
2023-09-12T11:35:09.749Z,32.30
2023-09-12T11:37:38.271Z,32.34
2023-09-12T11:40:34.610Z,32.35
2023-09-12T11:43:02.187Z,32.24
2023-09-12T11:45:29.224Z,32.34
2023-09-12T11:47:55.934Z,32.47
2023-09-12T11:50:31.782Z,32.38
2023-09-12T11:53:09.083Z,32.38
2023-09-12T11:55:49.676Z,32.35
2023-09-12T11:58:17.534Z,32.45
2023-09-12T12:00:49.325Z,32.32
2023-09-12T12:03:16.435Z,32.32
2023-09-12T12:05:43.462Z,32.32
2023-09-12T12:08:30.367Z,32.43
2023-09-12T12:10:59.846Z,32.46
2023-09-12T12:13:28.753Z,32.64
2023-09-12T12:15:55.443Z,32.82
2023-09-12T12:18:22.157Z,32.89
2023-09-12T12:20:48.798Z,32.80
2023-09-12T12:23:15.437Z,32.99
2023-09-12T12:25:41.972Z,33.16
2023-09-12T12:28:08.509Z,33.27
2023-09-12T12:30:37.142Z,33.45
2023-09-12T12:33:48.335Z,33.59
2023-09-12T12:36:06.752Z,33.69
2023-09-12T12:38:37.507Z,33.54
2023-09-12T12:41:04.947Z,33.23
2023-09-12T12:43:32.283Z,33.16
2023-09-12T12:46:00.046Z,33.13
2023-09-12T12:48:37.557Z,33.29
2023-09-12T12:51:23.956Z,33.38
2023-09-12T12:53:54.487Z,33.33
2023-09-12T12:56:31.745Z,33.48
2023-09-12T12:59:03.583Z,33.69
2023-09-12T13:01:30.728Z,33.80
2023-09-12T13:04:00.305Z,33.84
2023-09-12T13:06:28.904Z,33.96
2023-09-12T13:08:55.550Z,34.17
2023-09-12T13:11:22.131Z,34.33
2023-09-12T13:13:50.338Z,34.49
2023-09-12T13:16:17.753Z,34.57
2023-09-12T13:18:44.524Z,34.70
2023-09-12T13:21:11.284Z,34.65
2023-09-12T13:23:39.013Z,34.25
2023-09-12T13:26:08.711Z,33.96
2023-09-12T13:28:35.224Z,33.49
2023-09-12T13:31:01.796Z,33.00
2023-09-12T13:33:28.729Z,32.63
2023-09-12T13:35:55.359Z,32.29
2023-09-12T13:38:23.845Z,31.98
2023-09-12T13:40:50.388Z,31.73
2023-09-12T13:43:16.986Z,31.44
2023-09-12T13:45:43.724Z,31.23
2023-09-12T13:48:10.333Z,31.08
2023-09-12T13:50:37.078Z,31.38
2023-09-12T13:53:11.154Z,31.85
2023-09-12T13:55:38.341Z,31.84
2023-09-12T13:58:06.223Z,31.61
2023-09-12T14:00:36.953Z,31.32
2023-09-12T14:03:04.660Z,31.03
2023-09-12T14:05:32.082Z,30.72
2023-09-12T14:07:59.716Z,30.48
2023-09-12T14:10:34.889Z,30.26
2023-09-12T14:13:16.747Z,30.08
2023-09-12T14:15:48.755Z,29.91
2023-09-12T14:18:15.416Z,29.78
2023-09-12T14:20:43.517Z,29.66
2023-09-12T14:23:10.380Z,29.56
2023-09-12T14:25:39.212Z,29.48
2023-09-12T14:28:06.294Z,29.44
2023-09-12T14:30:37.411Z,29.37
2023-09-12T14:33:04.787Z,29.28
2023-09-12T14:35:31.328Z,29.29
2023-09-12T14:37:59.818Z,29.29
2023-09-12T14:40:27.805Z,29.30
2023-09-12T14:42:54.841Z,29.31
2023-09-12T14:45:21.408Z,29.26
2023-09-12T14:47:48.081Z,29.19
2023-09-12T14:50:14.829Z,29.13
2023-09-12T14:52:43.022Z,29.07
2023-09-12T14:55:10.039Z,28.96
2023-09-12T14:57:37.024Z,28.86
2023-09-12T15:00:04.347Z,28.77
2023-09-12T15:02:32.847Z,28.73
2023-09-12T15:05:00.938Z,28.64
2023-09-12T15:07:30.873Z,28.59
2023-09-12T15:09:58.261Z,28.46
2023-09-12T15:12:24.898Z,28.46
2023-09-12T15:14:52.253Z,28.36
2023-09-12T15:17:19.512Z,28.35
2023-09-12T15:19:46.102Z,28.30
2023-09-12T15:22:12.928Z,28.24
2023-09-12T15:24:41.350Z,28.19
2023-09-12T15:27:08.076Z,28.11
2023-09-12T15:29:34.583Z,28.04
2023-09-12T15:32:01.520Z,27.97
2023-09-12T15:34:28.047Z,27.88
2023-09-12T15:37:21.493Z,27.80
2023-09-12T15:39:49.385Z,27.72
2023-09-12T15:42:27.873Z,27.69
2023-09-12T15:45:02.718Z,27.64
2023-09-12T15:47:29.772Z,27.60
2023-09-12T15:49:57.392Z,27.55
2023-09-12T15:52:23.978Z,27.51
2023-09-12T15:54:52.991Z,27.45
2023-09-12T15:57:20.163Z,27.39
2023-09-12T15:59:46.670Z,27.32
2023-09-12T16:02:13.859Z,27.24
2023-09-12T16:04:40.651Z,27.21
2023-09-12T16:07:07.426Z,27.17
2023-09-12T16:09:34.107Z,27.12
2023-09-12T16:12:00.600Z,27.07
2023-09-12T16:14:27.146Z,27.04
2023-09-12T16:16:53.870Z,27.01
2023-09-12T16:19:20.375Z,26.99
2023-09-12T16:21:47.111Z,26.97
2023-09-12T16:24:13.676Z,26.93
2023-09-12T16:26:40.197Z,26.90
2023-09-12T16:29:06.936Z,26.85
2023-09-12T16:31:33.563Z,26.81
2023-09-12T16:34:00.369Z,26.77
2023-09-12T16:36:27.314Z,26.72
2023-09-12T16:38:54.564Z,26.70
2023-09-12T16:41:21.185Z,26.67
2023-09-12T16:43:47.779Z,26.63
2023-09-12T16:46:14.363Z,26.58
2023-09-12T16:48:40.977Z,26.52
2023-09-12T16:51:07.447Z,26.45
2023-09-12T16:53:33.949Z,26.37
2023-09-12T16:56:00.558Z,26.31
2023-09-12T16:58:27.840Z,26.26
2023-09-12T17:00:55.035Z,26.29
2023-09-12T17:03:21.890Z,26.23
2023-09-12T17:05:48.628Z,26.21
2023-09-12T17:08:15.132Z,26.44
2023-09-12T17:10:41.802Z,26.59
2023-09-12T17:13:08.518Z,26.47
2023-09-12T17:15:38.609Z,26.26
2023-09-12T17:18:06.594Z,26.06
2023-09-12T17:20:34.167Z,25.86
2023-09-12T17:23:00.991Z,25.62
2023-09-12T17:25:27.570Z,25.55
2023-09-12T17:27:54.113Z,25.34
2023-09-12T17:30:20.798Z,25.18
2023-09-12T17:32:47.316Z,25.08
2023-09-12T17:35:13.853Z,24.98
2023-09-12T17:37:40.873Z,24.86
2023-09-12T17:40:08.287Z,24.76
2023-09-12T17:42:35.712Z,24.67
2023-09-12T17:45:02.570Z,24.59
2023-09-12T17:47:29.142Z,24.53
2023-09-12T17:49:57.319Z,24.46
2023-09-12T17:52:23.900Z,24.44
2023-09-12T17:54:50.470Z,24.39
2023-09-12T17:57:17.201Z,24.35
2023-09-12T17:59:45.271Z,24.31
2023-09-12T18:02:11.889Z,24.26
2023-09-12T18:04:41.078Z,24.25
2023-09-12T18:07:08.072Z,24.28
2023-09-12T18:09:35.162Z,24.29
2023-09-12T18:12:01.855Z,24.34
2023-09-12T18:14:28.317Z,24.35
2023-09-12T18:16:54.944Z,24.36
2023-09-12T18:19:23.315Z,24.34
2023-09-12T18:21:50.510Z,24.33
2023-09-12T18:24:18.115Z,24.30
2023-09-12T18:26:44.968Z,24.30
2023-09-12T18:29:11.558Z,24.28
2023-09-12T18:31:38.205Z,24.25
2023-09-12T18:34:04.897Z,24.20
2023-09-12T18:36:31.718Z,24.12
2023-09-12T18:38:58.495Z,24.07
2023-09-12T18:41:25.108Z,24.03
2023-09-12T18:43:52.459Z,23.99
2023-09-12T18:46:19.068Z,23.97
2023-09-12T18:48:45.935Z,23.95
2023-09-12T18:51:12.460Z,23.90
2023-09-12T18:53:39.017Z,23.87
2023-09-12T18:56:06.896Z,23.83
2023-09-12T18:58:33.924Z,23.82
2023-09-12T19:01:02.435Z,23.81
2023-09-12T19:03:29.135Z,23.79
2023-09-12T19:05:57.811Z,23.74
2023-09-12T19:08:25.027Z,23.75
2023-09-12T19:10:52.300Z,23.73
2023-09-12T19:13:19.053Z,23.71
2023-09-12T19:15:46.518Z,23.69
2023-09-12T19:18:13.285Z,23.69
2023-09-12T19:20:41.197Z,23.71
2023-09-12T19:23:07.795Z,23.71
2023-09-12T19:25:35.036Z,23.71
2023-09-12T19:28:08.783Z,23.68
2023-09-12T19:30:38.932Z,23.66
2023-09-12T19:33:09.317Z,23.63
2023-09-12T19:35:37.666Z,23.58
2023-09-12T19:38:05.729Z,23.45
2023-09-12T19:40:32.660Z,23.28
2023-09-12T19:42:59.271Z,23.17
2023-09-12T19:45:25.840Z,23.14
2023-09-12T19:48:00.715Z,23.11
2023-09-12T19:50:28.371Z,23.07
2023-09-12T19:52:54.884Z,23.06
2023-09-12T19:55:22.859Z,23.02
2023-09-12T19:57:51.088Z,23.00
2023-09-12T20:00:17.844Z,22.99
2023-09-12T20:02:45.070Z,22.99
2023-09-12T20:05:12.017Z,22.96
2023-09-12T20:07:38.547Z,22.95
2023-09-12T20:10:05.616Z,22.92
2023-09-12T20:12:33.048Z,22.87
2023-09-12T20:14:59.998Z,22.83
2023-09-12T20:17:27.065Z,22.79
2023-09-12T20:19:54.157Z,22.79
2023-09-12T20:22:21.207Z,22.75
2023-09-12T20:24:47.883Z,22.72
2023-09-12T20:27:14.374Z,22.69
2023-09-12T20:29:40.828Z,22.69
2023-09-12T20:32:07.373Z,22.69
2023-09-12T20:34:34.028Z,22.72
2023-09-12T20:37:03.840Z,22.71
2023-09-12T20:39:30.986Z,22.70
2023-09-12T20:41:57.797Z,22.64
2023-09-12T20:44:24.963Z,22.59
2023-09-12T20:46:52.045Z,22.54
2023-09-12T20:49:18.876Z,22.54
2023-09-12T20:51:50.006Z,22.55
2023-09-12T20:54:18.305Z,22.53
2023-09-12T20:56:47.931Z,22.50
2023-09-12T20:59:15.268Z,22.51
2023-09-12T21:01:41.760Z,22.49
2023-09-12T21:04:08.469Z,22.47
2023-09-12T21:06:35.295Z,22.41
2023-09-12T21:09:01.894Z,22.36
2023-09-12T21:11:28.352Z,22.31
2023-09-12T21:13:54.933Z,22.25
2023-09-12T21:16:21.599Z,22.21
2023-09-12T21:18:48.550Z,22.19
2023-09-12T21:21:15.216Z,22.17
2023-09-12T21:23:42.083Z,22.12
2023-09-12T21:26:09.043Z,22.09
2023-09-12T21:28:35.564Z,22.08
2023-09-12T21:31:02.196Z,22.09
2023-09-12T21:33:28.734Z,22.08
2023-09-12T21:35:55.263Z,22.10
2023-09-12T21:38:23.618Z,22.10
2023-09-12T21:40:50.237Z,22.11
2023-09-12T21:43:16.935Z,22.12
2023-09-12T21:45:43.663Z,22.13
2023-09-12T21:48:10.630Z,22.15
2023-09-12T21:50:37.553Z,22.14
2023-09-12T21:53:05.499Z,22.06
2023-09-12T21:55:35.379Z,21.98
2023-09-12T21:58:03.611Z,21.93
2023-09-12T22:00:32.093Z,21.85
2023-09-12T22:02:59.118Z,21.78
2023-09-12T22:05:25.795Z,21.73
2023-09-12T22:07:52.454Z,21.71
2023-09-12T22:10:19.372Z,21.69
2023-09-12T22:12:46.543Z,21.70
2023-09-12T22:15:13.323Z,21.71
2023-09-12T22:17:39.789Z,21.70
2023-09-12T22:20:07.238Z,21.63
2023-09-12T22:22:33.858Z,21.58
2023-09-12T22:25:00.539Z,21.58
2023-09-12T22:27:27.109Z,21.55
2023-09-12T22:29:54.103Z,21.53
2023-09-12T22:32:20.771Z,21.53
2023-09-12T22:34:47.309Z,21.52
2023-09-12T22:37:13.986Z,21.51
2023-09-12T22:39:40.571Z,21.47
2023-09-12T22:42:07.285Z,21.40
2023-09-12T22:44:33.763Z,21.36
2023-09-12T22:47:01.365Z,21.28
2023-09-12T22:49:27.967Z,21.20
2023-09-12T22:51:54.673Z,21.14
2023-09-12T22:54:21.291Z,21.08
2023-09-12T22:56:47.790Z,21.03
2023-09-12T22:59:14.495Z,20.99
2023-09-12T23:01:41.305Z,20.98
2023-09-12T23:04:07.961Z,20.99
2023-09-12T23:06:34.758Z,20.97
2023-09-12T23:09:01.272Z,20.99
2023-09-12T23:11:27.789Z,20.97
2023-09-12T23:13:54.722Z,20.97
2023-09-12T23:16:21.440Z,20.98
2023-09-12T23:18:48.486Z,20.99
2023-09-12T23:21:15.125Z,21.02
2023-09-12T23:23:42.175Z,21.01
2023-09-12T23:26:09.843Z,21.03
2023-09-12T23:28:36.346Z,21.03
2023-09-12T23:31:03.459Z,21.03
2023-09-12T23:33:30.087Z,21.01
2023-09-12T23:35:56.579Z,20.98
2023-09-12T23:38:23.069Z,20.94
2023-09-12T23:40:50.353Z,20.88
2023-09-12T23:43:17.007Z,20.84
2023-09-12T23:45:43.576Z,20.85
2023-09-12T23:48:10.270Z,20.84
2023-09-12T23:50:36.810Z,20.86
2023-09-12T23:53:04.480Z,20.89
2023-09-12T23:55:34.054Z,20.90
2023-09-12T23:58:00.586Z,20.90
